Time;durP1;ratioP1;P1;durP2;ratioP2;P2;SDS_P1;SDS_P2;PMS_P1;PMS_P2;Temp;Humidity;BMP_temperature;BMP_pressure;BME280_temperature;BME280_humidity;BME280_pressure;Samples;Min_cycle;Max_cycle;Signal;HPM_P1;HPM_P2
2020/12/17 00:00:33;;;;;;;155.48;57.97;;;180.00;2022.40;;;;;;5053452;28;20063;-72
2020/12/17 00:02:58;;;;;;;153.07;57.63;;;180.00;2022.40;;;;;;5053379;28;20021;-72
2020/12/17 00:05:24;;;;;;;155.98;56.92;;;180.00;2022.40;;;;;;5053600;28;20020;-72
2020/12/17 00:07:50;;;;;;;142.50;56.10;;;179.90;2022.40;;;;;;5035295;28;20489;-72
2020/12/17 00:10:16;;;;;;;148.90;58.05;;;180.00;2022.40;;;;;;5053492;28;20028;-72
2020/12/17 00:12:43;;;;;;;154.27;56.92;;;180.00;2022.40;;;;;;5053467;28;20028;-73
2020/12/17 00:15:12;;;;;;;156.60;58.75;;;180.00;2022.40;;;;;;5052870;28;20025;-73
2020/12/17 00:17:42;;;;;;;144.73;54.38;;;180.00;2022.40;;;;;;5053351;28;20151;-73
2020/12/17 00:20:08;;;;;;;145.45;53.92;;;180.00;2022.40;;;;;;5053256;28;20044;-73
2020/12/17 00:22:39;;;;;;;149.10;56.22;;;180.00;2022.40;;;;;;5052669;28;20445;-72
2020/12/17 00:25:06;;;;;;;140.15;52.85;;;180.00;2022.40;;;;;;5053335;28;20162;-71
2020/12/17 00:27:32;;;;;;;140.60;53.53;;;179.90;2022.40;;;;;;5053346;28;20108;-69
2020/12/17 00:29:58;;;;;;;151.18;54.75;;;179.90;2048.00;;;;;;5052365;28;20035;-72
2020/12/17 00:32:24;;;;;;;156.10;54.50;;;179.90;2048.00;;;;;;5053098;28;20105;-71
2020/12/17 00:34:50;;;;;;;150.07;58.13;;;179.90;2048.00;;;;;;5056290;28;20100;-71
2020/12/17 00:37:16;;;;;;;152.68;54.55;;;180.00;2022.40;;;;;;5056706;28;20040;-71
2020/12/17 00:39:41;;;;;;;157.10;58.90;;;180.00;2022.40;;;;;;5056961;28;20431;-72
2020/12/17 00:42:07;;;;;;;147.45;55.85;;;180.00;2048.00;;;;;;5035472;28;20081;-72
2020/12/17 00:44:33;;;;;;;144.93;54.08;;;180.00;2048.00;;;;;;5036852;28;20022;-72
2020/12/17 00:46:59;;;;;;;151.35;57.40;;;180.00;2022.40;;;;;;5036820;28;20021;-72
2020/12/17 00:49:25;;;;;;;145.98;59.30;;;180.00;2048.00;;;;;;5036690;28;20530;-72
2020/12/17 00:51:57;;;;;;;154.30;58.85;;;179.90;2048.00;;;;;;5034989;28;20122;-72
2020/12/17 00:54:23;;;;;;;154.20;56.42;;;179.90;2048.00;;;;;;5036703;28;20036;-72
2020/12/17 00:56:49;;;;;;;150.13;57.00;;;179.80;2048.00;;;;;;5036537;28;20021;-72
2020/12/17 00:59:14;;;;;;;139.07;55.42;;;179.70;2073.60;;;;;;5036426;28;20065;-72
2020/12/17 01:01:40;;;;;;;146.93;55.67;;;179.70;2073.60;;;;;;5036592;28;20392;-72
2020/12/17 01:04:06;;;;;;;143.13;54.47;;;179.70;2073.60;;;;;;5036474;28;20056;-72
2020/12/17 01:06:32;;;;;;;152.77;57.42;;;179.70;2073.60;;;;;;5036471;28;20507;-72
2020/12/17 01:08:57;;;;;;;149.10;56.55;;;179.80;2073.60;;;;;;5036551;28;20414;-72
2020/12/17 01:11:28;;;;;;;155.02;57.90;;;179.80;2048.00;;;;;;5036281;28;20021;-72
2020/12/17 01:13:54;;;;;;;152.07;52.88;;;179.80;2048.00;;;;;;5036431;28;20044;-72
2020/12/17 01:16:20;;;;;;;141.82;52.55;;;179.70;2048.00;;;;;;5036426;28;20119;-72
2020/12/17 01:18:46;;;;;;;137.40;51.03;;;179.70;2048.00;;;;;;5036323;28;20043;-72
2020/12/17 01:21:12;;;;;;;142.07;53.45;;;179.70;2048.00;;;;;;5036109;28;20045;-71
2020/12/17 01:23:38;;;;;;;127.65;47.22;;;179.70;2048.00;;;;;;5034769;28;20041;-71
2020/12/17 01:26:10;;;;;;;128.75;50.00;;;179.70;2073.60;;;;;;5036090;28;20422;-69
2020/12/17 01:28:40;;;;;;;127.55;51.00;;;179.70;2073.60;;;;;;5036054;28;20105;-70
2020/12/17 01:31:11;;;;;;;134.75;50.45;;;179.70;2048.00;;;;;;5032341;28;20026;-73
2020/12/17 01:33:37;;;;;;;125.78;48.72;;;179.70;2048.00;;;;;;5036010;28;20386;-72
2020/12/17 01:36:08;;;;;;;139.20;52.45;;;179.70;2048.00;;;;;;5035786;28;20029;-73
2020/12/17 01:38:34;;;;;;;149.40;53.03;;;179.70;2048.00;;;;;;5035591;28;20037;-73
2020/12/17 01:41:00;;;;;;;145.82;56.03;;;179.70;2048.00;;;;;;5034281;28;20041;-73
2020/12/17 01:43:26;;;;;;;138.35;56.22;;;179.70;2048.00;;;;;;5035834;28;20486;-73
2020/12/17 01:45:53;;;;;;;126.28;50.50;;;179.70;2048.00;;;;;;5035091;28;20022;-73
2020/12/17 01:48:19;;;;;;;140.10;51.83;;;179.70;2073.60;;;;;;5035612;28;20104;-73
2020/12/17 01:50:56;;;;;;;136.35;52.40;;;179.70;2048.00;;;;;;5035772;28;20375;-73
2020/12/17 01:53:22;;;;;;;137.30;51.88;;;179.80;2048.00;;;;;;5034074;28;20395;-72
2020/12/17 01:55:49;;;;;;;143.90;51.85;;;179.80;2048.00;;;;;;5035468;28;20033;-72
2020/12/17 01:58:22;;;;;;;133.70;52.47;;;179.90;2048.00;;;;;;5035198;28;20038;-72
2020/12/17 02:00:52;;;;;;;142.85;53.88;;;179.90;2048.00;;;;;;5035428;28;20123;-72
2020/12/17 02:03:18;;;;;;;136.68;51.13;;;179.90;2048.00;;;;;;5035175;28;20352;-72
2020/12/17 02:05:44;;;;;;;141.40;53.78;;;179.90;2048.00;;;;;;5035476;28;20087;-73
2020/12/17 02:08:13;;;;;;;136.45;50.08;;;179.90;2048.00;;;;;;5035953;28;20029;-73
2020/12/17 02:10:40;;;;;;;145.75;51.60;;;179.90;2048.00;;;;;;5035299;28;20494;-71
2020/12/17 02:13:06;;;;;;;142.88;53.83;;;179.90;2048.00;;;;;;5034767;28;20026;-73
2020/12/17 02:15:31;;;;;;;155.43;58.38;;;179.90;2048.00;;;;;;5033767;28;20032;-73
2020/12/17 02:17:57;;;;;;;162.02;58.30;;;179.90;2048.00;;;;;;5035131;28;20080;-73
2020/12/17 02:20:23;;;;;;;159.65;58.33;;;179.90;2048.00;;;;;;5035043;28;20374;-72
2020/12/17 02:22:49;;;;;;;154.40;54.97;;;179.90;2048.00;;;;;;5034864;28;20024;-73
2020/12/17 02:25:15;;;;;;;138.30;54.03;;;179.90;2048.00;;;;;;5034972;28;20056;-72
2020/12/17 02:27:42;;;;;;;151.38;54.45;;;179.90;2048.00;;;;;;5035076;28;20029;-72
2020/12/17 02:30:09;;;;;;;145.75;53.28;;;179.90;2048.00;;;;;;5034796;28;20083;-72
2020/12/17 02:32:36;;;;;;;142.70;51.90;;;179.90;2048.00;;;;;;5034896;28;20037;-72
2020/12/17 02:35:02;;;;;;;155.75;52.88;;;179.90;2048.00;;;;;;5034874;28;20076;-73
2020/12/17 02:37:28;;;;;;;159.38;57.22;;;179.90;2048.00;;;;;;5034167;28;20060;-73
2020/12/17 02:39:54;;;;;;;159.88;56.08;;;179.90;2048.00;;;;;;5034647;28;20061;-72
2020/12/17 02:42:20;;;;;;;142.52;50.47;;;179.80;2048.00;;;;;;5053935;28;20072;-72
2020/12/17 02:44:45;;;;;;;136.57;49.33;;;179.80;2048.00;;;;;;5054389;28;20032;-72
2020/12/17 02:47:11;;;;;;;131.35;48.50;;;179.80;2048.00;;;;;;5054543;28;20083;-73
2020/12/17 02:49:37;;;;;;;133.52;48.72;;;179.80;2048.00;;;;;;5054461;28;20463;-73
2020/12/17 02:52:03;;;;;;;150.75;51.88;;;179.80;2048.00;;;;;;5053553;28;20021;-70
2020/12/17 02:54:29;;;;;;;142.18;49.53;;;179.80;2048.00;;;;;;5054375;28;20462;-71
2020/12/17 02:56:54;;;;;;;133.48;48.17;;;179.90;2048.00;;;;;;5053935;28;20028;-71
2020/12/17 02:59:20;;;;;;;137.15;51.03;;;179.90;2048.00;;;;;;5054261;28;20111;-72
2020/12/17 03:01:46;;;;;;;136.65;50.85;;;179.90;2048.00;;;;;;5053467;28;20103;-72
2020/12/17 03:04:12;;;;;;;140.52;51.78;;;179.90;2048.00;;;;;;5054148;28;20036;-71
2020/12/17 03:06:37;;;;;;;148.38;54.83;;;179.90;2048.00;;;;;;5053851;28;20074;-72
2020/12/17 03:09:05;;;;;;;148.23;51.47;;;179.80;2048.00;;;;;;5054125;28;20371;-72
2020/12/17 03:11:30;;;;;;;156.95;53.13;;;179.80;2048.00;;;;;;5053824;28;20100;-72
2020/12/17 03:13:56;;;;;;;152.07;56.42;;;179.80;2048.00;;;;;;5054035;28;20428;-73
2020/12/17 03:16:22;;;;;;;134.30;48.85;;;179.90;2048.00;;;;;;5053901;28;20017;-72
2020/12/17 03:18:48;;;;;;;140.85;51.33;;;179.90;2048.00;;;;;;5054038;28;20040;-73
2020/12/17 03:21:13;;;;;;;139.65;52.35;;;179.90;2048.00;;;;;;5035616;28;20035;-73
2020/12/17 03:23:39;;;;;;;115.30;45.50;;;179.90;2048.00;;;;;;5053766;28;20075;-73
2020/12/17 03:26:05;;;;;;;117.97;46.17;;;179.90;2048.00;;;;;;5053578;28;20021;-72
2020/12/17 03:28:31;;;;;;;119.97;43.70;;;179.90;2048.00;;;;;;5036007;28;20052;-71
2020/12/17 03:30:56;;;;;;;115.05;44.13;;;180.00;2048.00;;;;;;5053852;28;20013;-72
2020/12/17 03:33:22;;;;;;;110.85;41.45;;;180.00;2022.40;;;;;;5053782;28;20033;-70
2020/12/17 03:35:48;;;;;;;105.72;40.47;;;180.00;2022.40;;;;;;5053542;28;20024;-69
2020/12/17 03:38:14;;;;;;;110.43;42.15;;;180.00;2022.40;;;;;;5053559;28;20036;-69
2020/12/17 03:40:39;;;;;;;105.25;40.03;;;180.00;2048.00;;;;;;5053332;28;20536;-69
2020/12/17 03:43:05;;;;;;;100.65;39.08;;;180.00;2048.00;;;;;;5053520;28;20029;-69
2020/12/17 03:45:31;;;;;;;93.28;37.58;;;180.00;2022.40;;;;;;5053549;28;20025;-70
2020/12/17 03:47:56;;;;;;;98.72;37.55;;;179.90;2022.40;;;;;;5053731;28;20025;-69
2020/12/17 03:50:22;;;;;;;102.25;40.65;;;180.00;2048.00;;;;;;5053687;28;20479;-69
2020/12/17 03:52:48;;;;;;;97.32;36.58;;;180.00;2022.40;;;;;;5053531;28;20098;-69
2020/12/17 03:55:13;;;;;;;94.57;38.20;;;180.00;2022.40;;;;;;5034986;28;20466;-69
2020/12/17 03:57:39;;;;;;;94.53;37.75;;;180.00;2022.40;;;;;;5053309;28;20027;-69
2020/12/17 04:00:06;;;;;;;96.25;38.67;;;180.00;2022.40;;;;;;5035539;28;20033;-68
2020/12/17 04:02:31;;;;;;;89.63;37.38;;;180.00;2022.40;;;;;;5053364;28;20025;-69
2020/12/17 04:04:57;;;;;;;91.38;36.80;;;180.00;2022.40;;;;;;5053356;28;20436;-69
2020/12/17 04:07:23;;;;;;;89.95;36.08;;;180.00;2022.40;;;;;;5053375;28;20029;-69
2020/12/17 04:09:48;;;;;;;89.07;37.10;;;180.00;2022.40;;;;;;5056789;28;20021;-69
2020/12/17 04:12:14;;;;;;;92.55;37.00;;;180.00;2022.40;;;;;;5057487;28;20031;-69
2020/12/17 04:14:40;;;;;;;95.18;36.38;;;179.90;2022.40;;;;;;5057344;28;20033;-69
2020/12/17 04:17:06;;;;;;;88.32;36.40;;;179.90;2022.40;;;;;;5039197;28;20028;-69
2020/12/17 04:19:32;;;;;;;87.70;36.15;;;179.90;2022.40;;;;;;5056484;28;20532;-72
2020/12/17 04:21:57;;;;;;;90.40;36.05;;;179.90;2022.40;;;;;;5057028;28;20033;-72
2020/12/17 04:24:23;;;;;;;91.35;37.72;;;180.00;2022.40;;;;;;5057139;28;20029;-72
2020/12/17 04:26:50;;;;;;;99.57;37.70;;;180.00;2022.40;;;;;;5056911;28;20034;-72
2020/12/17 04:29:16;;;;;;;98.93;37.58;;;180.00;2022.40;;;;;;5056974;28;20052;-70
2020/12/17 04:31:42;;;;;;;96.50;37.95;;;180.00;2022.40;;;;;;5056994;28;20049;-71
2020/12/17 04:34:08;;;;;;;101.50;37.97;;;180.00;2022.40;;;;;;5056907;28;20053;-72
2020/12/17 04:36:34;;;;;;;99.38;37.35;;;180.00;2022.40;;;;;;5056812;28;20112;-72
2020/12/17 04:39:00;;;;;;;95.03;37.30;;;180.10;2022.40;;;;;;5056757;28;20117;-73
2020/12/17 04:41:26;;;;;;;103.35;39.72;;;180.10;2022.40;;;;;;5056197;28;20057;-73
2020/12/17 04:43:52;;;;;;;100.65;39.33;;;180.10;2022.40;;;;;;5056547;28;20367;-71
2020/12/17 04:46:19;;;;;;;107.07;40.45;;;180.10;2022.40;;;;;;5056796;28;20407;-71
2020/12/17 04:48:50;;;;;;;101.60;39.25;;;180.10;2022.40;;;;;;5056803;28;20029;-70
2020/12/17 04:51:17;;;;;;;107.10;37.40;;;180.00;2022.40;;;;;;5056639;28;20029;-71
2020/12/17 04:53:48;;;;;;;99.38;40.90;;;180.00;2022.40;;;;;;5056689;28;20033;-70
2020/12/17 04:56:16;;;;;;;101.97;39.78;;;180.00;2022.40;;;;;;5056434;28;20021;-69
2020/12/17 04:58:47;;;;;;;94.72;38.47;;;180.00;2022.40;;;;;;5056775;28;20123;-71
2020/12/17 05:01:18;;;;;;;102.32;37.70;;;180.00;2022.40;;;;;;5056244;28;20029;-72
2020/12/17 05:03:48;;;;;;;94.97;37.92;;;180.00;2022.40;;;;;;5056307;28;20040;-72
2020/12/17 05:06:21;;;;;;;100.05;38.45;;;180.00;2022.40;;;;;;5056160;28;20455;-70
2020/12/17 05:08:47;;;;;;;96.25;37.85;;;180.00;2022.40;;;;;;5056408;28;20032;-71
2020/12/17 05:11:16;;;;;;;93.70;37.47;;;180.00;2022.40;;;;;;5056533;28;20025;-71
2020/12/17 05:13:41;;;;;;;90.80;36.88;;;180.00;2022.40;;;;;;5056300;28;20378;-71
2020/12/17 05:16:07;;;;;;;78.43;33.60;;;180.00;2022.40;;;;;;5056260;28;20112;-71
2020/12/17 05:18:33;;;;;;;68.25;32.05;;;180.00;2022.40;;;;;;5055887;28;20041;-71
2020/12/17 05:21:03;;;;;;;68.88;30.38;;;179.90;2022.40;;;;;;5066151;28;20024;-69
2020/12/17 05:23:29;;;;;;;65.18;29.60;;;179.90;2022.40;;;;;;5094232;28;20062;-70
2020/12/17 05:25:56;;;;;;;66.95;30.20;;;180.00;2022.40;;;;;;5089583;28;20028;-71
2020/12/17 05:28:26;;;;;;;61.00;29.88;;;180.00;2022.40;;;;;;5094917;28;20036;-71
2020/12/17 05:30:51;;;;;;;59.70;28.67;;;179.90;2022.40;;;;;;5095443;28;20096;-71
2020/12/17 05:33:17;;;;;;;61.38;29.35;;;179.90;2022.40;;;;;;5096122;28;20458;-71
2020/12/17 05:35:43;;;;;;;60.58;29.20;;;180.00;2022.40;;;;;;5095513;28;20489;-71
2020/12/17 05:38:10;;;;;;;58.65;29.02;;;180.00;2022.40;;;;;;5095120;28;20036;-71
2020/12/17 05:40:36;;;;;;;62.50;30.48;;;180.00;2022.40;;;;;;5068613;28;20033;-70
2020/12/17 05:43:02;;;;;;;67.95;32.22;;;180.00;2022.40;;;;;;5064267;28;20044;-71
2020/12/17 05:45:29;;;;;;;91.57;37.05;;;180.00;1996.80;;;;;;5067562;28;20024;-70
2020/12/17 05:48:16;;;;;;;102.25;38.17;;;180.00;2022.40;;;;;;5067666;28;20473;-69
2020/12/17 05:50:59;;;;;;;87.05;36.55;;;180.00;2022.40;;;;;;5075714;28;20029;-69
2020/12/17 05:53:30;;;;;;;104.65;41.38;;;180.00;2022.40;;;;;;5075620;28;20028;-69
2020/12/17 05:56:06;;;;;;;118.75;48.20;;;179.90;2022.40;;;;;;5075259;28;20457;-69
2020/12/17 05:58:40;;;;;;;343.13;145.88;;;179.90;2022.40;;;;;;5075375;28;20051;-69
2020/12/17 06:01:17;;;;;;;328.08;138.13;;;179.90;2048.00;;;;;;5075413;28;20025;-69
2020/12/17 06:03:44;;;;;;;329.23;144.77;;;179.80;2048.00;;;;;;5075372;28;20024;-68
2020/12/17 06:06:10;;;;;;;413.23;227.10;;;179.80;2048.00;;;;;;5075306;28;20047;-68
2020/12/17 06:08:40;;;;;;;265.13;129.45;;;179.80;2048.00;;;;;;5057179;28;20107;-69
2020/12/17 06:11:12;;;;;;;200.23;95.50;;;179.80;2048.00;;;;;;5074688;28;20036;-69
2020/12/17 06:13:43;;;;;;;194.13;99.60;;;179.80;2048.00;;;;;;5056824;28;20089;-69
2020/12/17 06:16:11;;;;;;;166.00;78.00;;;179.80;2048.00;;;;;;5075072;28;20078;-68
2020/12/17 06:18:44;;;;;;;167.73;77.50;;;179.80;2073.60;;;;;;5074805;28;20047;-69
2020/12/17 06:21:11;;;;;;;174.45;78.28;;;179.80;2048.00;;;;;;5075075;28;20021;-69
2020/12/17 06:23:38;;;;;;;161.95;72.10;;;179.80;2073.60;;;;;;5056909;28;20035;-69
2020/12/17 06:26:09;;;;;;;152.27;59.92;;;179.80;2073.60;;;;;;5074762;28;20029;-69
2020/12/17 06:28:45;;;;;;;148.77;65.50;;;179.80;2048.00;;;;;;5075133;28;20029;-69
2020/12/17 06:31:15;;;;;;;159.20;65.40;;;179.80;2073.60;;;;;;5074468;28;20029;-68
2020/12/17 06:33:42;;;;;;;154.82;64.93;;;179.80;2073.60;;;;;;5074476;28;20036;-69
2020/12/17 06:36:34;;;;;;;163.52;62.85;;;179.80;2073.60;;;;;;5074556;28;20477;-69
2020/12/17 06:39:04;;;;;;;149.43;55.20;;;179.80;2073.60;;;;;;5074383;28;20432;-69
2020/12/17 06:41:31;;;;;;;140.93;50.05;;;179.80;2073.60;;;;;;5074197;28;20497;-69
2020/12/17 06:43:56;;;;;;;146.15;49.60;;;179.80;2073.60;;;;;;5074557;28;20032;-69
2020/12/17 06:46:36;;;;;;;152.85;49.05;;;179.80;2073.60;;;;;;5074427;28;20470;-69
2020/12/17 06:49:21;;;;;;;136.45;44.90;;;179.80;2073.60;;;;;;5074062;28;20036;-68
2020/12/17 06:51:59;;;;;;;132.02;45.67;;;179.80;2073.60;;;;;;5074470;28;20421;-69
2020/12/17 06:54:25;;;;;;;114.30;41.17;;;179.80;2073.60;;;;;;5074382;28;20046;-69
2020/12/17 06:57:17;;;;;;;97.78;48.65;;;179.80;2048.00;;;;;;5074203;28;20467;-68
2020/12/17 07:00:05;;;;;;;108.00;64.32;;;179.80;2022.40;;;;;;5070504;28;20044;-68
2020/12/17 07:02:42;;;;;;;96.90;42.08;;;179.80;2022.40;;;;;;5074238;28;20031;-69
2020/12/17 07:05:36;;;;;;;91.97;37.40;;;179.80;2022.40;;;;;;5074142;28;20077;-68
2020/12/17 07:08:02;;;;;;;124.28;47.03;;;179.80;2048.00;;;;;;5055563;28;20032;-67
2020/12/17 07:10:30;;;;;;;162.57;64.90;;;179.80;2073.60;;;;;;5056032;28;20025;-70
2020/12/17 07:12:56;;;;;;;177.80;72.32;;;179.80;2048.00;;;;;;5074014;28;20016;-69
2020/12/17 07:15:32;;;;;;;152.52;62.88;;;179.80;2048.00;;;;;;5074025;28;20036;-68
2020/12/17 07:18:23;;;;;;;142.90;56.33;;;179.80;2048.00;;;;;;5073809;28;20032;-69
2020/12/17 07:21:01;;;;;;;142.40;58.03;;;179.80;2073.60;;;;;;5073958;28;20016;-69
2020/12/17 07:23:31;;;;;;;150.25;59.03;;;179.80;2048.00;;;;;;5073123;28;20051;-68
2020/12/17 07:26:03;;;;;;;148.50;57.47;;;179.80;2073.60;;;;;;5073684;28;20107;-69
2020/12/17 07:28:30;;;;;;;174.90;73.18;;;179.80;2073.60;;;;;;5073452;28;20046;-67
2020/12/17 07:30:56;;;;;;;159.15;73.10;;;179.80;2073.60;;;;;;5073726;28;20049;-69
2020/12/17 07:33:51;;;;;;;155.35;63.63;;;179.80;2073.60;;;;;;5073822;28;20052;-67
2020/12/17 07:36:17;;;;;;;;;;;179.80;2048.00;;;;;;4992824;28;20499;-69
2020/12/17 07:38:44;;;;;;;141.02;56.72;;;179.80;2073.60;;;;;;4992129;28;19914;-69
2020/12/17 07:41:26;;;;;;;153.13;60.80;;;179.70;2073.60;;;;;;4992212;28;20050;-69
2020/12/17 07:43:52;;;;;;;142.45;60.00;;;179.70;2073.60;;;;;;4987623;28;20038;-69
2020/12/17 07:46:34;;;;;;;137.45;57.00;;;179.70;2073.60;;;;;;4993002;28;20030;-69
2020/12/17 07:49:02;;;;;;;151.68;59.67;;;179.70;2073.60;;;;;;4992120;28;20504;-69
2020/12/17 07:51:29;;;;;;;155.45;57.10;;;179.70;2073.60;;;;;;4992215;28;20026;-69
2020/12/17 07:53:56;;;;;;;139.27;56.72;;;179.70;2073.60;;;;;;4992141;28;20516;-69
2020/12/17 07:56:22;;;;;;;142.63;53.78;;;179.80;2073.60;;;;;;4992189;28;20041;-69
2020/12/17 07:58:48;;;;;;;129.50;53.40;;;179.80;2073.60;;;;;;4992037;28;20097;-69
2020/12/17 08:01:15;;;;;;;138.15;56.25;;;179.80;2073.60;;;;;;4992133;28;20392;-68
2020/12/17 08:03:48;;;;;;;136.77;55.92;;;179.80;2048.00;;;;;;4975803;28;20037;-69
2020/12/17 08:06:17;;;;;;;131.80;58.95;;;179.80;2073.60;;;;;;4992027;28;20045;-68
2020/12/17 08:08:43;;;;;;;133.38;52.63;;;179.80;2048.00;;;;;;4992257;28;20026;-67
2020/12/17 08:11:10;;;;;;;117.28;48.60;;;179.80;2048.00;;;;;;4975779;28;20023;-68
2020/12/17 08:13:37;;;;;;;120.28;47.03;;;179.80;2048.00;;;;;;5064859;28;20382;-69
2020/12/17 08:16:06;;;;;;;121.32;47.08;;;179.80;2048.00;;;;;;5073461;28;20024;-68
2020/12/17 08:18:36;;;;;;;117.75;48.47;;;179.80;2048.00;;;;;;5073124;28;20499;-68
2020/12/17 08:21:05;;;;;;;119.50;48.97;;;179.80;2073.60;;;;;;5073351;28;20090;-68
2020/12/17 08:23:36;;;;;;;152.77;72.28;;;179.90;2048.00;;;;;;5073134;28;20039;-69
2020/12/17 08:26:03;;;;;;;162.77;69.65;;;179.90;2048.00;;;;;;5054932;28;20398;-69
2020/12/17 08:28:31;;;;;;;153.20;61.90;;;179.80;2048.00;;;;;;5073324;28;20029;-68
2020/12/17 08:31:11;;;;;;;149.40;67.00;;;179.80;2073.60;;;;;;5073026;28;20046;-69
2020/12/17 08:33:48;;;;;;;144.88;62.55;;;179.80;2048.00;;;;;;5073222;28;20104;-69
2020/12/17 08:36:21;;;;;;;135.88;55.25;;;179.90;2048.00;;;;;;5073119;28;20040;-68
2020/12/17 08:39:02;;;;;;;163.63;58.88;;;179.90;2048.00;;;;;;5073038;28;20399;-69
2020/12/17 08:41:41;;;;;;;144.02;58.05;;;179.80;2048.00;;;;;;5072806;28;20041;-68
2020/12/17 08:44:08;;;;;;;160.10;63.53;;;179.80;2048.00;;;;;;5072787;28;20112;-69
2020/12/17 08:46:44;;;;;;;184.70;69.25;;;179.80;2048.00;;;;;;5073124;28;20024;-68
2020/12/17 08:49:12;;;;;;;147.68;59.75;;;179.90;2022.40;;;;;;5072882;28;20037;-68
2020/12/17 08:51:38;;;;;;;137.48;54.10;;;179.90;2048.00;;;;;;5073443;28;20048;-69
2020/12/17 08:54:05;;;;;;;127.72;51.03;;;179.90;2048.00;;;;;;5073459;28;20024;-67
2020/12/17 08:56:31;;;;;;;127.97;49.35;;;179.80;2048.00;;;;;;5076411;28;20051;-67
2020/12/17 08:59:04;;;;;;;130.00;50.17;;;179.90;2048.00;;;;;;5076613;28;20116;-69
2020/12/17 09:01:35;;;;;;;150.98;50.25;;;179.90;2022.40;;;;;;5076429;28;20383;-72
2020/12/17 09:04:08;;;;;;;139.73;50.90;;;179.90;2022.40;;;;;;5076099;28;20431;-72
2020/12/17 09:06:35;;;;;;;139.82;51.25;;;180.00;2022.40;;;;;;5076498;28;20028;-69
2020/12/17 09:09:15;;;;;;;189.10;77.18;;;180.00;2022.40;;;;;;5075880;28;20025;-65
2020/12/17 09:11:44;;;;;;;127.90;52.20;;;180.00;2022.40;;;;;;5076285;28;20474;-72
2020/12/17 09:14:10;;;;;;;116.40;47.28;;;180.00;2022.40;;;;;;5058722;28;20075;-71
2020/12/17 09:16:40;;;;;;;107.03;42.15;;;180.00;2022.40;;;;;;5076171;28;20032;-70
2020/12/17 09:19:08;;;;;;;107.50;43.10;;;179.90;2022.40;;;;;;5075876;28;20037;-71
2020/12/17 09:21:58;;;;;;;116.85;45.80;;;179.90;1996.80;;;;;;5075926;28;20028;-61
2020/12/17 09:24:33;;;;;;;153.25;58.50;;;180.00;2022.40;;;;;;4994759;28;20046;-73
2020/12/17 09:27:15;;;;;;;201.88;57.58;;;180.00;2022.40;;;;;;4994276;28;20523;-69
2020/12/17 09:29:41;;;;;;;167.82;67.82;;;180.10;2022.40;;;;;;4994550;28;20042;-69
2020/12/17 09:32:19;;;;;;;154.20;58.05;;;180.10;2022.40;;;;;;4994558;28;20033;-69
2020/12/17 09:34:45;;;;;;;255.00;106.70;;;180.10;2022.40;;;;;;4994503;28;20031;-68
2020/12/17 09:37:12;;;;;;;278.75;128.85;;;204.80;2022.40;;;;;;4994440;28;20086;-69
2020/12/17 09:39:44;;;;;;;319.23;158.43;;;204.80;2022.40;;;;;;4994655;28;20042;-70
2020/12/17 09:42:16;;;;;;;332.48;163.75;;;204.80;2022.40;;;;;;4994119;28;20125;-69
2020/12/17 09:44:43;;;;;;;333.05;210.15;;;204.90;2022.40;;;;;;4994238;28;20022;-69
2020/12/17 09:47:09;;;;;;;331.30;168.73;;;205.00;2022.40;;;;;;4994299;28;20041;-69
2020/12/17 09:49:37;;;;;;;371.38;248.43;;;205.00;2022.40;;;;;;4994221;28;20035;-69
2020/12/17 09:52:11;;;;;;;395.20;273.13;;;205.00;1996.80;;;;;;4994226;28;20053;-66
2020/12/17 09:54:43;;;;;;;172.55;85.78;;;205.00;1996.80;;;;;;4977930;28;20045;-70
2020/12/17 09:57:15;;;;;;;121.35;53.58;;;205.00;1971.20;;;;;;4994007;28;20086;-70
2020/12/17 09:59:43;;;;;;;313.13;93.25;;;204.90;1971.20;;;;;;4993917;28;20538;-69
2020/12/17 10:02:14;;;;;;;366.75;114.25;;;204.90;1971.20;;;;;;5061749;28;20378;-70
2020/12/17 10:04:41;;;;;;;199.77;72.20;;;205.00;1971.20;;;;;;5074932;28;20024;-68
2020/12/17 10:07:09;;;;;;;180.45;72.60;;;205.00;1971.20;;;;;;5074603;28;20028;-70
2020/12/17 10:09:36;;;;;;;418.90;182.73;;;205.00;1945.60;;;;;;5057055;28;20094;-70
2020/12/17 10:12:02;;;;;;;322.00;135.80;;;205.00;1971.20;;;;;;5074948;28;20028;-69
2020/12/17 10:14:28;;;;;;;320.92;125.10;;;205.10;1945.60;;;;;;5075104;28;20024;-70
2020/12/17 10:16:59;;;;;;;228.63;98.95;;;205.10;1945.60;;;;;;5074693;28;20093;-70
2020/12/17 10:19:27;;;;;;;151.85;63.15;;;205.00;1945.60;;;;;;5057239;28;20074;-69
2020/12/17 10:21:53;;;;;;;112.68;45.67;;;205.10;1945.60;;;;;;5074639;28;20025;-68
2020/12/17 10:24:19;;;;;;;107.75;47.00;;;205.00;1971.20;;;;;;5074729;28;20115;-69
2020/12/17 10:26:45;;;;;;;126.43;57.63;;;205.00;1971.20;;;;;;5074656;28;20074;-69
2020/12/17 10:29:10;;;;;;;121.88;52.35;;;205.00;1945.60;;;;;;5074889;28;20051;-68
2020/12/17 10:31:36;;;;;;;118.97;50.40;;;205.00;1945.60;;;;;;5074678;28;20485;-68
2020/12/17 10:34:02;;;;;;;105.70;47.70;;;204.90;1971.20;;;;;;5074650;28;20108;-67
2020/12/17 10:36:28;;;;;;;109.57;46.78;;;204.90;1971.20;;;;;;5074691;28;20060;-68
2020/12/17 10:38:54;;;;;;;109.95;45.10;;;204.90;1971.20;;;;;;5073251;28;20097;-67
2020/12/17 10:41:26;;;;;;;101.18;43.22;;;204.80;1971.20;;;;;;5055559;28;20059;-65
2020/12/17 10:43:55;;;;;;;94.00;43.13;;;180.10;1996.80;;;;;;5074547;28;20432;-67
2020/12/17 10:46:21;;;;;;;90.50;43.03;;;180.10;1971.20;;;;;;5074439;28;20104;-68
2020/12/17 10:48:47;;;;;;;103.70;44.67;;;180.00;1996.80;;;;;;5074636;28;20559;-67
2020/12/17 10:51:14;;;;;;;107.90;49.75;;;180.10;1971.20;;;;;;5074342;28;20089;-67
2020/12/17 10:53:41;;;;;;;104.15;48.95;;;204.80;1971.20;;;;;;5074449;28;20477;-68
2020/12/17 10:56:08;;;;;;;109.00;50.65;;;204.80;1971.20;;;;;;5074016;28;20020;-68
2020/12/17 10:58:34;;;;;;;111.53;50.10;;;204.80;1971.20;;;;;;5074102;28;20040;-67
2020/12/17 11:01:00;;;;;;;118.07;53.90;;;204.80;1971.20;;;;;;5074090;28;20024;-67
2020/12/17 11:03:25;;;;;;;219.55;109.22;;;204.80;1971.20;;;;;;5074271;28;20057;-67
2020/12/17 11:05:53;;;;;;;149.27;74.72;;;205.10;2099.20;;;;;;5074174;28;20063;-66
2020/12/17 11:08:19;;;;;;;146.85;71.13;;;205.10;1996.80;;;;;;5073974;28;20020;-67
2020/12/17 11:10:45;;;;;;;196.73;88.65;;;205.10;1945.60;;;;;;5073911;28;20025;-66
2020/12/17 11:13:11;;;;;;;164.98;76.47;;;205.00;1945.60;;;;;;5055013;28;20032;-66
2020/12/17 11:15:37;;;;;;;143.77;71.07;;;205.00;1945.60;;;;;;5055818;28;20089;-67
2020/12/17 11:18:02;;;;;;;137.80;61.90;;;205.00;1945.60;;;;;;5073138;28;20037;-66
2020/12/17 11:20:28;;;;;;;125.47;57.00;;;204.90;1945.60;;;;;;5073942;28;20423;-67
2020/12/17 11:22:54;;;;;;;132.70;59.20;;;204.90;1945.60;;;;;;5073907;28;20028;-66
2020/12/17 11:25:19;;;;;;;143.15;62.72;;;204.90;1945.60;;;;;;5073792;28;20351;-67
2020/12/17 11:27:47;;;;;;;148.18;65.25;;;205.00;1945.60;;;;;;5073954;28;20108;-67
2020/12/17 11:30:13;;;;;;;140.68;67.07;;;205.00;1945.60;;;;;;5073753;28;20036;-67
2020/12/17 11:32:39;;;;;;;150.07;68.88;;;205.10;1945.60;;;;;;5073705;28;20021;-67
2020/12/17 11:35:06;;;;;;;131.75;63.33;;;205.00;1945.60;;;;;;5073517;28;20039;-67
2020/12/17 11:37:33;;;;;;;146.02;65.50;;;205.00;1945.60;;;;;;5073377;28;20032;-67
2020/12/17 11:40:00;;;;;;;135.00;63.95;;;205.10;1945.60;;;;;;5073666;28;20031;-67
2020/12/17 11:42:26;;;;;;;134.82;65.95;;;205.00;1920.00;;;;;;5073514;28;20028;-66
2020/12/17 11:44:51;;;;;;;137.23;66.00;;;205.00;1920.00;;;;;;5073779;28;20108;-66
2020/12/17 11:47:17;;;;;;;135.18;61.03;;;205.00;1920.00;;;;;;5073551;28;20047;-68
2020/12/17 11:49:43;;;;;;;129.05;58.05;;;205.00;1920.00;;;;;;5073536;28;20027;-67
2020/12/17 11:52:09;;;;;;;125.22;55.50;;;204.90;1920.00;;;;;;5073541;28;20069;-66
2020/12/17 11:54:34;;;;;;;123.03;55.60;;;204.80;1920.00;;;;;;5073469;28;20078;-67
2020/12/17 11:57:00;;;;;;;141.63;69.75;;;204.80;1945.60;;;;;;5073346;28;20458;-66